createdAt,value
2019-05-10T00:00:15.879Z,10.80
2019-05-10T00:03:02.380Z,10.90
2019-05-10T00:05:49.705Z,10.80
2019-05-10T00:08:36.523Z,10.80
2019-05-10T00:11:08.130Z,10.80
2019-05-10T00:13:38.872Z,10.80
2019-05-10T00:16:07.535Z,10.80
2019-05-10T00:18:36.361Z,10.80
2019-05-10T00:21:05.036Z,10.80
2019-05-10T00:23:33.560Z,10.80
2019-05-10T00:26:02.185Z,10.80
2019-05-10T00:28:30.712Z,10.80
2019-05-10T00:30:59.640Z,10.80
2019-05-10T00:33:28.473Z,10.80
2019-05-10T00:35:57.027Z,10.80
2019-05-10T00:38:25.483Z,10.80
2019-05-10T00:40:54.039Z,10.80
2019-05-10T00:43:22.836Z,10.80
2019-05-10T00:45:51.290Z,10.70
2019-05-10T00:48:19.773Z,10.70
2019-05-10T00:50:48.299Z,10.70
2019-05-10T00:53:16.782Z,10.70
2019-05-10T00:55:45.623Z,10.70
2019-05-10T00:58:14.408Z,10.70
2019-05-10T01:00:42.873Z,10.70
2019-05-10T01:03:11.426Z,10.70
2019-05-10T01:05:39.879Z,10.70
2019-05-10T01:08:08.359Z,10.70
2019-05-10T01:10:36.816Z,10.70
2019-05-10T01:13:05.373Z,10.70
2019-05-10T01:15:33.895Z,10.70
2019-05-10T01:18:02.376Z,10.80
2019-05-10T01:20:30.919Z,10.80
2019-05-10T01:22:59.449Z,10.80
2019-05-10T01:25:35.420Z,10.80
2019-05-10T01:27:58.320Z,10.80
2019-05-10T01:30:27.228Z,10.70
2019-05-10T01:32:55.695Z,10.70
2019-05-10T01:35:24.243Z,10.70
2019-05-10T01:37:52.775Z,10.70
2019-05-10T01:40:21.343Z,10.70
2019-05-10T01:42:49.869Z,10.70
2019-05-10T01:45:18.588Z,10.70
2019-05-10T01:47:47.040Z,10.70
2019-05-10T01:50:15.744Z,10.60
2019-05-10T01:52:44.588Z,10.60
2019-05-10T01:55:13.384Z,10.70
2019-05-10T01:57:41.916Z,10.60
2019-05-10T02:00:11.211Z,10.60
2019-05-10T02:02:39.669Z,10.60
2019-05-10T02:05:09.533Z,10.60
2019-05-10T02:07:38.187Z,10.50
2019-05-10T02:10:07.196Z,10.50
2019-05-10T02:12:35.748Z,10.50
2019-05-10T02:15:07.292Z,10.50
2019-05-10T02:17:35.917Z,10.50
2019-05-10T02:20:06.256Z,10.50
2019-05-10T02:22:34.892Z,10.50
2019-05-10T02:25:04.060Z,10.50
2019-05-10T02:27:32.613Z,10.50
2019-05-10T02:30:01.177Z,10.50
2019-05-10T02:32:29.700Z,10.40
2019-05-10T02:34:59.321Z,10.40
2019-05-10T02:37:28.205Z,10.40
2019-05-10T02:39:56.758Z,10.30
2019-05-10T02:42:25.221Z,10.40
2019-05-10T02:44:53.769Z,10.30
2019-05-10T02:47:22.299Z,10.30
2019-05-10T02:49:50.848Z,10.30
2019-05-10T02:52:19.568Z,10.30
2019-05-10T02:54:48.363Z,10.30
2019-05-10T02:57:17.492Z,10.30
2019-05-10T02:59:48.683Z,10.30
2019-05-10T03:02:18.114Z,10.20
2019-05-10T03:04:47.212Z,10.20
2019-05-10T03:07:18.119Z,10.20
2019-05-10T03:09:49.139Z,10.20
2019-05-10T03:12:25.699Z,10.20
2019-05-10T03:14:56.958Z,10.20
2019-05-10T03:17:27.102Z,10.20
2019-05-10T03:19:56.074Z,10.20
2019-05-10T03:22:25.737Z,10.20
2019-05-10T03:24:54.651Z,10.20
2019-05-10T03:27:23.311Z,10.20
2019-05-10T03:29:52.440Z,10.20
2019-05-10T03:32:21.069Z,10.20
2019-05-10T03:34:49.754Z,10.20
2019-05-10T03:37:18.656Z,10.20
2019-05-10T03:39:47.290Z,10.20
2019-05-10T03:42:16.476Z,10.20
2019-05-10T03:44:45.297Z,10.20
2019-05-10T03:47:13.909Z,10.20
2019-05-10T03:49:42.529Z,10.20
2019-05-10T03:52:11.052Z,10.20
2019-05-10T03:54:39.604Z,10.20
2019-05-10T03:57:14.163Z,10.10
2019-05-10T03:59:38.269Z,10.10
2019-05-10T04:02:06.818Z,10.10
2019-05-10T04:04:35.876Z,10.10
2019-05-10T04:07:04.411Z,10.10
2019-05-10T04:09:33.251Z,10.10
2019-05-10T04:12:01.793Z,10.00
2019-05-10T04:14:30.336Z,10.00
2019-05-10T04:16:58.798Z,10.00
2019-05-10T04:19:27.350Z,10.00
2019-05-10T04:21:55.881Z,9.90
2019-05-10T04:24:24.965Z,9.90
2019-05-10T04:26:53.479Z,9.90
2019-05-10T04:29:21.960Z,9.90
2019-05-10T04:31:50.410Z,9.90
2019-05-10T04:34:18.959Z,9.80
2019-05-10T04:36:47.484Z,9.80
2019-05-10T04:39:15.960Z,9.80
2019-05-10T04:41:44.415Z,9.80
2019-05-10T04:44:13.041Z,9.80
2019-05-10T04:46:41.566Z,9.80
2019-05-10T04:49:10.183Z,9.80
2019-05-10T04:51:39.078Z,9.80
2019-05-10T04:54:07.628Z,9.80
2019-05-10T04:56:36.147Z,9.80
2019-05-10T04:59:04.767Z,9.80
2019-05-10T05:01:33.509Z,9.80
2019-05-10T05:04:02.400Z,9.80
2019-05-10T05:06:30.932Z,9.80
2019-05-10T05:08:59.484Z,9.90
2019-05-10T05:11:27.940Z,9.90
2019-05-10T05:13:56.419Z,9.90
2019-05-10T05:16:24.943Z,9.90
2019-05-10T05:18:53.700Z,9.90
2019-05-10T05:21:22.231Z,9.90
2019-05-10T05:23:51.068Z,10.00
2019-05-10T05:26:19.594Z,10.00
2019-05-10T05:28:48.440Z,10.10
2019-05-10T05:31:16.896Z,10.10
2019-05-10T05:33:45.473Z,10.10
2019-05-10T05:36:13.984Z,10.20
2019-05-10T05:38:47.285Z,10.20
2019-05-10T05:41:12.639Z,10.30
2019-05-10T05:43:46.315Z,10.30
2019-05-10T05:46:14.509Z,10.40
2019-05-10T05:48:42.131Z,10.40
2019-05-10T05:51:10.603Z,10.50
2019-05-10T05:53:42.503Z,10.50
2019-05-10T05:56:13.406Z,10.50
2019-05-10T05:58:44.788Z,10.60
2019-05-10T06:01:09.699Z,10.60
2019-05-10T06:03:38.183Z,10.70
2019-05-10T06:06:15.552Z,10.70
2019-05-10T06:08:36.948Z,10.70
2019-05-10T06:11:08.969Z,10.70
2019-05-10T06:13:35.960Z,10.80
2019-05-10T06:16:06.412Z,10.90
2019-05-10T06:18:34.843Z,10.90
2019-05-10T06:21:03.294Z,11.00
2019-05-10T06:23:35.011Z,11.00
2019-05-10T06:26:02.033Z,11.00
2019-05-10T06:28:56.836Z,11.10
2019-05-10T06:31:00.772Z,11.10
2019-05-10T06:33:29.596Z,11.10
2019-05-10T06:35:58.124Z,11.20
2019-05-10T06:38:26.647Z,11.30
2019-05-10T06:40:55.271Z,11.30
2019-05-10T06:43:23.791Z,11.30
2019-05-10T06:45:53.938Z,11.30
2019-05-10T06:48:27.482Z,11.30
2019-05-10T06:50:53.059Z,11.40
2019-05-10T06:53:23.436Z,11.50
2019-05-10T06:55:51.733Z,11.50
2019-05-10T06:58:20.254Z,11.60
2019-05-10T07:00:48.810Z,11.70
2019-05-10T07:03:17.343Z,11.70
2019-05-10T07:05:45.833Z,11.70
2019-05-10T07:08:20.165Z,11.70
2019-05-10T07:10:44.571Z,11.80
2019-05-10T07:13:13.188Z,11.80
2019-05-10T07:15:44.251Z,11.90
2019-05-10T07:18:16.686Z,11.90
2019-05-10T07:20:43.256Z,11.90
2019-05-10T07:23:12.785Z,12.00
2019-05-10T07:25:43.890Z,12.10
2019-05-10T07:28:15.682Z,12.20
2019-05-10T07:30:42.077Z,12.20
2019-05-10T07:33:10.735Z,12.20
2019-05-10T07:35:39.764Z,12.20
2019-05-10T07:38:08.446Z,12.30
2019-05-10T07:40:37.109Z,12.40
2019-05-10T07:43:05.808Z,12.50
2019-05-10T07:45:34.803Z,12.50
2019-05-10T07:48:08.413Z,12.60
2019-05-10T07:50:33.528Z,12.80
2019-05-10T07:53:02.003Z,12.90
2019-05-10T07:55:30.464Z,12.90
2019-05-10T07:58:04.619Z,12.90
2019-05-10T08:00:29.336Z,12.90
2019-05-10T08:03:11.862Z,12.90
2019-05-10T08:05:29.557Z,12.80
2019-05-10T08:08:00.842Z,12.90
2019-05-10T08:10:29.371Z,13.10
2019-05-10T08:12:59.489Z,13.20
2019-05-10T08:15:30.628Z,13.30
2019-05-10T08:17:58.821Z,13.20
2019-05-10T08:20:41.432Z,13.30
2019-05-10T08:22:57.696Z,13.30
2019-05-10T08:25:29.069Z,13.40
2019-05-10T08:27:56.457Z,13.60
2019-05-10T08:30:42.724Z,13.70
2019-05-10T08:33:09.961Z,13.80
2019-05-10T08:35:38.903Z,13.80
2019-05-10T08:38:08.708Z,13.70
2019-05-10T08:40:38.151Z,13.70
2019-05-10T08:43:09.727Z,13.80
2019-05-10T08:45:38.773Z,13.80
2019-05-10T08:48:07.450Z,13.90
2019-05-10T08:50:49.290Z,13.90
2019-05-10T08:53:10.925Z,13.90
2019-05-10T08:55:36.772Z,14.00
2019-05-10T08:58:05.324Z,14.10
2019-05-10T09:00:49.022Z,14.00
2019-05-10T09:03:09.256Z,14.10
2019-05-10T09:05:35.044Z,14.10
2019-05-10T09:08:05.756Z,14.10
2019-05-10T09:10:34.198Z,14.20
2019-05-10T09:13:03.474Z,14.20
2019-05-10T09:15:33.139Z,14.30
2019-05-10T09:18:04.454Z,14.40
2019-05-10T09:20:32.168Z,14.40
2019-05-10T09:23:02.400Z,14.40
2019-05-10T09:25:33.645Z,14.40
2019-05-10T09:28:10.615Z,14.40
2019-05-10T09:30:35.630Z,14.50
2019-05-10T09:33:08.735Z,14.70
2019-05-10T09:35:38.885Z,14.80
2019-05-10T09:38:05.155Z,14.90
2019-05-10T09:40:34.015Z,15.00
2019-05-10T09:43:07.437Z,15.20
2019-05-10T09:45:33.115Z,15.20
2019-05-10T09:48:02.567Z,15.30
2019-05-10T09:50:41.187Z,15.40
2019-05-10T09:53:01.615Z,15.30
2019-05-10T09:55:30.144Z,15.30
2019-05-10T09:57:58.714Z,15.40
2019-05-10T10:00:37.721Z,15.50
2019-05-10T10:03:08.206Z,15.70
2019-05-10T10:05:39.805Z,16.00
2019-05-10T10:08:09.156Z,16.20
2019-05-10T10:10:37.162Z,16.40
2019-05-10T10:13:11.752Z,16.40
2019-05-10T10:15:37.232Z,16.40
2019-05-10T10:18:06.403Z,16.60
2019-05-10T10:20:40.669Z,16.80
2019-05-10T10:23:07.263Z,17.10
2019-05-10T10:25:40.618Z,16.90
2019-05-10T10:28:08.243Z,16.80
2019-05-10T10:30:37.437Z,16.80
2019-05-10T10:33:11.318Z,16.80
2019-05-10T10:35:37.744Z,16.80
2019-05-10T10:38:08.093Z,16.90
2019-05-10T10:40:44.300Z,16.70
2019-05-10T10:43:07.723Z,16.60
2019-05-10T10:45:37.607Z,16.60
2019-05-10T10:48:10.720Z,16.70
2019-05-10T10:50:36.575Z,16.90
2019-05-10T10:53:07.798Z,17.30
2019-05-10T10:55:37.863Z,17.60
2019-05-10T10:58:07.413Z,17.80
2019-05-10T11:00:38.971Z,18.20
2019-05-10T11:03:07.154Z,18.70
2019-05-10T11:05:36.248Z,19.20
2019-05-10T11:08:04.840Z,19.70
2019-05-10T11:10:33.864Z,19.50
2019-05-10T11:13:10.202Z,19.70
2019-05-10T11:15:35.908Z,20.00
2019-05-10T11:18:03.032Z,20.50
2019-05-10T11:20:31.956Z,20.90
2019-05-10T11:23:00.620Z,21.00
2019-05-10T11:25:29.249Z,21.10
2019-05-10T11:27:59.282Z,21.10
2019-05-10T11:30:28.096Z,21.10
2019-05-10T11:32:56.720Z,21.50
2019-05-10T11:35:31.009Z,21.80
2019-05-10T11:37:55.447Z,22.00
2019-05-10T11:40:30.914Z,22.60
2019-05-10T11:42:54.419Z,23.30
2019-05-10T11:45:26.113Z,23.80
2019-05-10T11:47:58.754Z,24.40
2019-05-10T11:50:31.257Z,25.10
2019-05-10T11:52:54.522Z,25.10
2019-05-10T11:55:23.390Z,24.50
2019-05-10T11:58:01.840Z,23.90
2019-05-10T12:00:29.175Z,22.90
2019-05-10T12:07:54.727Z,26.90
2019-05-10T12:10:25.727Z,28.10
2019-05-10T12:15:25.837Z,29.10
2019-05-10T12:17:59.178Z,28.60
2019-05-10T12:20:39.516Z,29.90
2019-05-10T12:22:54.873Z,31.20
2019-05-10T12:25:42.711Z,31.20
2019-05-10T12:26:04.972Z,23.90
2019-05-10T12:26:05.330Z,28.70
2019-05-10T12:26:30.936Z,25.70
2019-05-10T12:27:53.976Z,31.60
2019-05-10T12:30:22.524Z,31.40
2019-05-10T12:32:56.170Z,31.70
2019-05-10T12:35:21.575Z,32.80
2019-05-10T12:37:54.105Z,30.70
2019-05-10T12:40:23.780Z,28.60
2019-05-10T12:42:51.079Z,28.50
2019-05-10T12:45:22.984Z,30.40
2019-05-10T12:47:51.720Z,31.10
2019-05-10T12:50:20.721Z,31.80
2019-05-10T12:53:01.946Z,30.20
2019-05-10T12:55:19.527Z,26.90
2019-05-10T12:57:47.988Z,24.50
2019-05-10T13:00:17.584Z,23.50
2019-05-10T13:02:51.479Z,24.10
2019-05-10T13:05:16.432Z,26.20
2019-05-10T13:07:44.949Z,27.50
2019-05-10T13:10:13.768Z,27.60
2019-05-10T13:12:46.857Z,25.50
2019-05-10T13:15:13.288Z,23.60
2019-05-10T13:17:43.868Z,22.50
2019-05-10T13:20:12.928Z,22.40
2019-05-10T13:22:41.486Z,21.60
2019-05-10T13:25:10.356Z,21.00
2019-05-10T13:27:39.048Z,20.30
2019-05-10T13:30:08.563Z,19.80
2019-05-10T13:32:37.115Z,19.50
2019-05-10T13:35:06.750Z,19.20
2019-05-10T13:37:35.352Z,18.90
2019-05-10T13:40:08.333Z,18.90
2019-05-10T13:42:43.323Z,18.70
2019-05-10T13:47:46.291Z,18.30
2019-05-10T13:50:14.920Z,18.30
2019-05-10T13:52:43.404Z,18.50
2019-05-10T13:55:12.007Z,18.80
2019-05-10T13:57:40.483Z,18.60
2019-05-10T14:00:10.848Z,19.60
2019-05-10T14:02:39.304Z,20.40
2019-05-10T14:05:11.716Z,19.80
2019-05-10T14:07:38.534Z,19.20
2019-05-10T14:10:07.411Z,19.10
2019-05-10T14:12:36.220Z,19.10
2019-05-10T14:15:12.977Z,18.50
2019-05-10T14:17:37.128Z,18.10
2019-05-10T14:20:19.680Z,17.80
2019-05-10T14:22:38.549Z,17.50
2019-05-10T14:25:08.564Z,17.10
2019-05-10T14:27:38.548Z,16.80
2019-05-10T14:30:13.758Z,16.50
2019-05-10T14:32:39.428Z,16.30
2019-05-10T14:35:08.629Z,16.20
2019-05-10T14:37:37.530Z,16.20
2019-05-10T14:40:07.492Z,16.20
2019-05-10T14:42:36.084Z,16.50
2019-05-10T14:45:05.989Z,17.10
2019-05-10T14:47:46.855Z,17.50
2019-05-10T14:50:06.387Z,17.70
2019-05-10T14:52:34.916Z,17.70
2019-05-10T14:55:04.890Z,17.70
2019-05-10T14:57:33.365Z,17.70
2019-05-10T15:00:02.819Z,17.60
2019-05-10T15:02:31.524Z,17.70
2019-05-10T15:05:01.369Z,17.60
2019-05-10T15:07:30.480Z,17.70
2019-05-10T15:10:00.279Z,17.70
2019-05-10T15:12:29.243Z,17.80
2019-05-10T15:14:57.704Z,18.10
2019-05-10T15:17:29.760Z,18.20
2019-05-10T15:19:59.634Z,18.30
2019-05-10T15:22:26.650Z,18.10
2019-05-10T15:24:55.180Z,18.00
2019-05-10T15:27:24.190Z,18.10
2019-05-10T15:29:52.690Z,18.00
2019-05-10T15:32:21.240Z,17.90
2019-05-10T15:35:05.607Z,17.50
2019-05-10T15:37:20.223Z,17.30
2019-05-10T15:39:49.011Z,17.10
2019-05-10T15:42:17.501Z,16.90
2019-05-10T15:44:46.027Z,16.70
2019-05-10T15:47:20.005Z,16.60
2019-05-10T15:49:44.755Z,16.50
2019-05-10T15:52:17.969Z,16.50
2019-05-10T15:54:45.030Z,16.40
2019-05-10T15:57:14.445Z,16.40
2019-05-10T15:59:43.801Z,16.40
2019-05-10T16:02:12.395Z,16.30
2019-05-10T16:04:41.205Z,16.20
2019-05-10T16:07:14.470Z,16.20
2019-05-10T16:09:40.078Z,16.20
2019-05-10T16:12:08.858Z,16.20
2019-05-10T16:14:39.264Z,16.20
2019-05-10T16:17:10.409Z,16.30
2019-05-10T16:19:38.099Z,16.40
2019-05-10T16:22:06.623Z,16.50
2019-05-10T16:24:35.184Z,16.60
2019-05-10T16:27:03.984Z,16.60
2019-05-10T16:29:37.530Z,16.80
2019-05-10T16:32:02.648Z,16.90
2019-05-10T16:34:32.248Z,17.00
2019-05-10T16:37:01.319Z,17.10
2019-05-10T16:39:30.181Z,17.10
2019-05-10T16:41:58.642Z,17.00
2019-05-10T16:44:27.207Z,16.70
2019-05-10T16:46:55.994Z,16.40
2019-05-10T16:49:24.542Z,16.30
2019-05-10T16:51:53.144Z,16.20
2019-05-10T16:54:25.405Z,16.20
2019-05-10T16:56:59.612Z,16.10
2019-05-10T16:59:24.382Z,16.00
2019-05-10T17:01:52.267Z,15.90
2019-05-10T17:04:20.821Z,15.80
2019-05-10T17:06:49.270Z,15.80
2019-05-10T17:09:19.478Z,15.80
2019-05-10T17:11:48.692Z,15.80
2019-05-10T17:14:17.990Z,15.80
2019-05-10T17:16:50.230Z,15.80
2019-05-10T17:19:16.931Z,15.90
2019-05-10T17:21:45.455Z,15.90
2019-05-10T17:24:18.664Z,16.00
2019-05-10T17:26:44.392Z,16.00
2019-05-10T17:29:14.740Z,15.90
2019-05-10T17:31:45.554Z,15.90
2019-05-10T17:34:21.932Z,15.80
2019-05-10T17:36:43.603Z,15.70
2019-05-10T17:39:12.074Z,15.60
2019-05-10T17:41:40.526Z,15.60
2019-05-10T17:44:09.055Z,15.40
2019-05-10T17:46:37.531Z,15.40
2019-05-10T17:49:06.059Z,15.30
2019-05-10T17:51:34.535Z,15.30
2019-05-10T17:54:03.780Z,15.30
2019-05-10T17:56:32.667Z,15.30
2019-05-10T17:59:05.983Z,15.30
2019-05-10T18:01:32.811Z,15.20
2019-05-10T18:04:01.343Z,15.20
2019-05-10T18:06:30.197Z,15.10
2019-05-10T18:08:58.683Z,15.10
2019-05-10T18:11:27.215Z,15.00
2019-05-10T18:13:55.691Z,14.90
2019-05-10T18:16:24.513Z,14.90
2019-05-10T18:18:53.069Z,14.80
2019-05-10T18:21:24.069Z,14.80
2019-05-10T18:23:52.758Z,14.70
2019-05-10T18:26:21.980Z,14.70
2019-05-10T18:28:50.808Z,14.60
2019-05-10T18:31:19.272Z,14.60
2019-05-10T18:33:54.143Z,14.60
2019-05-10T18:36:18.331Z,14.60
2019-05-10T18:38:46.815Z,14.60
2019-05-10T18:41:15.411Z,14.50
2019-05-10T18:43:43.888Z,14.50
2019-05-10T18:46:12.636Z,14.40
2019-05-10T18:48:41.123Z,14.40
2019-05-10T18:51:09.648Z,14.40
2019-05-10T18:53:38.131Z,14.30
2019-05-10T18:56:06.800Z,14.20
2019-05-10T18:58:35.283Z,14.10
2019-05-10T19:01:03.883Z,14.10
2019-05-10T19:03:33.782Z,14.10
2019-05-10T19:06:11.197Z,14.00
2019-05-10T19:08:32.777Z,14.00
2019-05-10T19:11:01.506Z,13.90
2019-05-10T19:13:34.115Z,13.80
2019-05-10T19:16:01.359Z,13.80
2019-05-10T19:18:29.922Z,13.80
2019-05-10T19:20:58.439Z,13.80
2019-05-10T19:23:26.916Z,13.70
2019-05-10T19:25:55.367Z,13.70
2019-05-10T19:28:26.712Z,13.60
2019-05-10T19:30:58.672Z,13.60
2019-05-10T19:33:29.616Z,13.60
2019-05-10T19:35:54.419Z,13.50
2019-05-10T19:38:22.898Z,13.50
2019-05-10T19:40:51.427Z,13.40
2019-05-10T19:43:21.552Z,13.40
2019-05-10T19:45:51.062Z,13.40
2019-05-10T19:48:20.647Z,13.40
2019-05-10T19:50:49.147Z,13.40
2019-05-10T19:53:17.632Z,13.30
2019-05-10T19:55:46.167Z,13.30
2019-05-10T19:58:14.645Z,13.30
2019-05-10T20:00:43.095Z,13.30
2019-05-10T20:03:11.571Z,13.30
2019-05-10T20:05:40.030Z,13.20
2019-05-10T20:08:08.580Z,13.30
2019-05-10T20:10:37.383Z,13.30
2019-05-10T20:13:05.932Z,13.30
2019-05-10T20:15:34.459Z,13.30
2019-05-10T20:18:03.050Z,13.30
2019-05-10T20:20:31.535Z,13.30
2019-05-10T20:23:00.029Z,13.40
2019-05-10T20:25:28.548Z,13.40
2019-05-10T20:27:57.099Z,13.40
2019-05-10T20:30:25.556Z,13.40
2019-05-10T20:32:54.103Z,13.40
2019-05-10T20:35:22.678Z,13.30
2019-05-10T20:38:01.471Z,13.30
2019-05-10T20:40:21.431Z,13.30
2019-05-10T20:42:49.927Z,13.20
2019-05-10T20:45:18.591Z,13.20
2019-05-10T20:47:47.582Z,13.20
2019-05-10T20:50:16.881Z,13.20
2019-05-10T20:52:45.872Z,13.20
2019-05-10T20:55:14.591Z,13.20
2019-05-10T20:57:43.171Z,13.20
2019-05-10T21:00:12.031Z,13.20
2019-05-10T21:02:40.584Z,13.20
2019-05-10T21:05:09.449Z,13.20
2019-05-10T21:07:37.936Z,13.20
2019-05-10T21:10:07.396Z,13.30
2019-05-10T21:12:36.279Z,13.30
2019-05-10T21:15:07.255Z,13.30
2019-05-10T21:17:35.824Z,13.40
2019-05-10T21:20:06.600Z,13.40
2019-05-10T21:22:35.151Z,13.40
2019-05-10T21:25:04.567Z,13.40
2019-05-10T21:27:33.052Z,13.50
2019-05-10T21:30:01.676Z,13.50
2019-05-10T21:32:30.155Z,13.50
2019-05-10T21:34:58.608Z,13.40
2019-05-10T21:37:27.071Z,13.40
2019-05-10T21:39:55.544Z,13.40
2019-05-10T21:42:24.308Z,13.40
2019-05-10T21:44:52.931Z,13.40
2019-05-10T21:47:21.385Z,13.40
2019-05-10T21:49:49.934Z,13.30
2019-05-10T21:52:18.387Z,13.20
2019-05-10T21:54:46.867Z,13.30
2019-05-10T21:57:15.812Z,13.20
2019-05-10T21:59:44.369Z,13.20
2019-05-10T22:02:12.969Z,13.20
2019-05-10T22:04:41.607Z,13.20
2019-05-10T22:07:10.199Z,13.20
2019-05-10T22:09:39.497Z,13.20
2019-05-10T22:12:08.540Z,13.20
2019-05-10T22:14:37.077Z,13.20
2019-05-10T22:17:05.939Z,13.20
2019-05-10T22:19:35.141Z,13.10
2019-05-10T22:22:04.129Z,13.10
2019-05-10T22:24:32.667Z,13.10
2019-05-10T22:27:01.311Z,13.00
2019-05-10T22:29:29.764Z,13.00
2019-05-10T22:31:58.249Z,12.90
2019-05-10T22:34:26.776Z,12.90
2019-05-10T22:36:55.337Z,12.90
2019-05-10T22:39:23.936Z,12.90
2019-05-10T22:41:53.081Z,12.90
2019-05-10T22:44:21.939Z,12.90
2019-05-10T22:46:50.481Z,12.90
2019-05-10T22:49:19.349Z,13.00
2019-05-10T22:51:47.915Z,13.00
2019-05-10T22:54:16.368Z,13.00
2019-05-10T22:56:44.924Z,13.00
2019-05-10T22:59:13.455Z,13.00
2019-05-10T23:01:42.007Z,13.00
2019-05-10T23:04:10.535Z,12.90
2019-05-10T23:06:39.340Z,13.00
2019-05-10T23:09:23.455Z,12.90
2019-05-10T23:11:39.261Z,13.00
2019-05-10T23:14:07.856Z,12.90
2019-05-10T23:16:36.335Z,13.00
2019-05-10T23:19:04.936Z,13.00
2019-05-10T23:21:33.479Z,12.90
2019-05-10T23:24:03.584Z,12.80
2019-05-10T23:26:32.135Z,12.80
2019-05-10T23:29:00.736Z,12.80
2019-05-10T23:31:29.292Z,12.70
2019-05-10T23:33:57.832Z,12.70
2019-05-10T23:36:26.443Z,12.60
2019-05-10T23:38:55.321Z,12.60
2019-05-10T23:41:23.876Z,12.60
2019-05-10T23:43:52.323Z,12.60
2019-05-10T23:46:20.808Z,12.60
2019-05-10T23:48:49.344Z,12.60
2019-05-10T23:51:17.896Z,12.60
2019-05-10T23:53:46.428Z,12.60
2019-05-10T23:56:14.908Z,12.70
2019-05-10T23:58:43.431Z,12.60
